createdAt,value
2019-03-30T00:02:03.970Z,60.49
2019-03-30T00:04:32.368Z,60.71
2019-03-30T00:07:00.765Z,60.54
2019-03-30T00:09:29.441Z,60.64
2019-03-30T00:11:58.169Z,60.64
2019-03-30T00:14:27.453Z,60.52
2019-03-30T00:16:56.139Z,60.76
2019-03-30T00:19:34.780Z,60.85
2019-03-30T00:21:54.937Z,61.00
2019-03-30T00:24:23.326Z,61.24
2019-03-30T00:26:52.310Z,61.50
2019-03-30T00:29:21.002Z,61.50
2019-03-30T00:31:49.685Z,61.48
2019-03-30T00:34:18.088Z,61.81
2019-03-30T00:36:46.475Z,61.84
2019-03-30T00:39:15.042Z,61.84
2019-03-30T00:41:43.531Z,62.15
2019-03-30T00:44:12.187Z,62.39
2019-03-30T00:46:40.978Z,62.63
2019-03-30T00:49:09.499Z,62.84
2019-03-30T00:51:37.884Z,62.75
2019-03-30T00:54:06.266Z,62.52
2019-03-30T00:56:35.006Z,62.52
2019-03-30T00:59:03.404Z,62.83
2019-03-30T01:01:31.806Z,62.97
2019-03-30T01:04:00.259Z,62.87
2019-03-30T01:06:28.884Z,62.70
2019-03-30T01:08:57.650Z,63.01
2019-03-30T01:11:26.117Z,63.00
2019-03-30T01:13:54.616Z,63.00
2019-03-30T01:16:23.268Z,63.13
2019-03-30T01:18:51.657Z,62.89
2019-03-30T01:21:20.432Z,62.89
2019-03-30T01:23:49.120Z,62.79
2019-03-30T01:26:18.608Z,62.68
2019-03-30T01:28:47.419Z,62.61
2019-03-30T01:31:15.800Z,62.61
2019-03-30T01:33:44.185Z,62.75
2019-03-30T01:36:12.589Z,62.44
2019-03-30T01:38:41.018Z,62.44
2019-03-30T01:41:09.416Z,62.58
2019-03-30T01:43:37.823Z,62.64
2019-03-30T01:46:06.582Z,62.56
2019-03-30T01:48:35.202Z,62.52
2019-03-30T01:51:03.687Z,62.55
2019-03-30T01:53:32.066Z,62.70
2019-03-30T01:56:00.469Z,62.88
2019-03-30T01:58:28.856Z,62.80
2019-03-30T02:00:57.569Z,63.06
2019-03-30T02:03:26.672Z,63.05
2019-03-30T02:05:55.354Z,63.29
2019-03-30T02:08:23.757Z,63.29
2019-03-30T02:10:52.151Z,63.55
2019-03-30T02:13:20.532Z,63.61
2019-03-30T02:15:49.278Z,63.56
2019-03-30T02:18:18.071Z,63.56
2019-03-30T02:20:48.414Z,63.78
2019-03-30T02:23:17.014Z,63.93
2019-03-30T02:25:45.476Z,64.14
2019-03-30T02:28:14.034Z,64.36
2019-03-30T02:30:42.508Z,64.23
2019-03-30T02:33:10.942Z,64.30
2019-03-30T02:35:39.337Z,64.34
2019-03-30T02:38:07.875Z,64.48
2019-03-30T02:40:36.290Z,64.57
2019-03-30T02:43:05.137Z,64.57
2019-03-30T02:45:33.790Z,64.09
2019-03-30T02:48:02.176Z,64.09
2019-03-30T02:50:47.678Z,63.57
2019-03-30T02:53:01.124Z,63.34
2019-03-30T02:55:29.801Z,63.34
2019-03-30T02:57:58.782Z,63.52
2019-03-30T03:00:27.174Z,63.60
2019-03-30T03:02:55.556Z,63.93
2019-03-30T03:05:23.985Z,63.93
2019-03-30T03:07:52.820Z,64.11
2019-03-30T03:10:21.540Z,64.14
2019-03-30T03:12:50.297Z,64.34
2019-03-30T03:15:18.746Z,64.15
2019-03-30T03:17:47.137Z,64.26
2019-03-30T03:20:16.560Z,64.48
2019-03-30T03:22:44.983Z,64.61
2019-03-30T03:25:13.365Z,64.61
2019-03-30T03:27:41.773Z,64.97
2019-03-30T03:30:11.785Z,64.97
2019-03-30T03:32:40.598Z,65.11
2019-03-30T03:35:09.583Z,65.11
2019-03-30T03:37:45.180Z,65.44
2019-03-30T03:40:09.157Z,65.53
2019-03-30T03:42:37.725Z,65.73
2019-03-30T03:45:07.949Z,65.73
2019-03-30T03:47:36.821Z,65.73
2019-03-30T03:50:05.938Z,65.73
2019-03-30T03:52:34.876Z,65.87
2019-03-30T03:55:04.803Z,66.08
2019-03-30T03:57:36.576Z,66.22
2019-03-30T04:00:06.217Z,66.29
2019-03-30T04:02:37.020Z,66.43
2019-03-30T04:05:07.842Z,66.56
2019-03-30T04:07:39.275Z,66.77
2019-03-30T04:10:08.310Z,66.77
2019-03-30T04:12:38.132Z,67.13
2019-03-30T04:15:08.158Z,67.13
2019-03-30T04:17:37.113Z,67.56
2019-03-30T04:20:07.152Z,67.56
2019-03-30T04:22:35.564Z,67.46
2019-03-30T04:25:06.001Z,67.46
2019-03-30T04:27:34.622Z,67.32
2019-03-30T04:30:03.573Z,67.34
2019-03-30T04:32:32.315Z,67.34
2019-03-30T04:35:01.024Z,67.12
2019-03-30T04:37:29.404Z,67.02
2019-03-30T04:39:58.168Z,66.97
2019-03-30T04:42:26.639Z,66.92
2019-03-30T04:44:55.049Z,66.90
2019-03-30T04:47:23.424Z,66.88
2019-03-30T04:49:52.097Z,67.33
2019-03-30T04:52:20.777Z,67.33
2019-03-30T04:54:49.474Z,67.18
2019-03-30T04:57:18.149Z,67.39
2019-03-30T04:59:46.831Z,67.61
2019-03-30T05:02:15.232Z,67.68
2019-03-30T05:04:43.901Z,67.61
2019-03-30T05:07:12.586Z,67.92
2019-03-30T05:09:40.990Z,68.14
2019-03-30T05:12:09.376Z,68.14
2019-03-30T05:14:37.948Z,68.31
2019-03-30T05:17:06.535Z,68.06
2019-03-30T05:19:34.950Z,67.93
2019-03-30T05:22:12.629Z,67.84
2019-03-30T05:24:33.808Z,67.80
2019-03-30T05:27:02.316Z,67.66
2019-03-30T05:29:30.701Z,67.70
2019-03-30T05:31:59.115Z,67.08
2019-03-30T05:34:27.750Z,67.08
2019-03-30T05:36:56.140Z,66.60
2019-03-30T05:39:24.560Z,65.86
2019-03-30T05:41:52.960Z,65.86
2019-03-30T05:44:21.569Z,65.57
2019-03-30T05:46:49.960Z,65.53
2019-03-30T05:49:18.428Z,64.92
2019-03-30T05:51:46.839Z,64.92
2019-03-30T05:54:15.248Z,64.43
2019-03-30T05:56:43.788Z,64.43
2019-03-30T05:59:12.170Z,64.43
2019-03-30T06:01:40.580Z,63.99
2019-03-30T06:04:09.304Z,63.52
2019-03-30T06:06:37.693Z,63.72
2019-03-30T06:09:06.856Z,63.80
2019-03-30T06:11:35.662Z,63.46
2019-03-30T06:14:04.362Z,63.62
2019-03-30T06:16:32.879Z,63.62
2019-03-30T06:19:01.515Z,63.75
2019-03-30T06:21:29.980Z,63.97
2019-03-30T06:23:58.464Z,63.97
2019-03-30T06:26:26.861Z,64.01
2019-03-30T06:28:55.352Z,64.01
2019-03-30T06:31:23.735Z,64.70
2019-03-30T06:33:52.137Z,64.70
2019-03-30T06:36:20.711Z,64.40
2019-03-30T06:38:49.144Z,64.48
2019-03-30T06:41:17.543Z,64.48
2019-03-30T06:43:45.937Z,64.43
2019-03-30T06:46:14.435Z,64.68
2019-03-30T06:48:42.910Z,64.19
2019-03-30T06:51:11.672Z,64.30
2019-03-30T06:53:40.056Z,64.39
2019-03-30T06:56:08.461Z,64.39
2019-03-30T06:58:37.726Z,64.12
2019-03-30T07:01:06.490Z,64.09
2019-03-30T07:03:35.258Z,64.09
2019-03-30T07:06:03.716Z,64.29
2019-03-30T07:08:33.684Z,63.76
2019-03-30T07:11:03.823Z,63.76
2019-03-30T07:13:34.332Z,63.58
2019-03-30T07:16:04.272Z,62.79
2019-03-30T07:18:34.091Z,63.47
2019-03-30T07:21:02.482Z,63.47
2019-03-30T07:23:30.885Z,62.59
2019-03-30T07:25:59.354Z,61.78
2019-03-30T07:28:27.741Z,61.78
2019-03-30T07:30:56.202Z,61.33
2019-03-30T07:33:24.891Z,61.33
2019-03-30T07:35:53.277Z,61.37
2019-03-30T07:38:21.680Z,61.21
2019-03-30T07:40:50.083Z,59.80
2019-03-30T07:43:18.604Z,59.36
2019-03-30T07:45:47.075Z,58.80
2019-03-30T07:48:15.554Z,59.11
2019-03-30T07:50:44.049Z,57.85
2019-03-30T07:53:25.643Z,57.58
2019-03-30T07:55:42.622Z,57.41
2019-03-30T07:58:11.325Z,56.51
2019-03-30T08:00:40.316Z,56.42
2019-03-30T08:03:08.719Z,55.76
2019-03-30T08:05:37.104Z,54.44
2019-03-30T08:08:05.500Z,53.47
2019-03-30T08:10:34.650Z,54.54
2019-03-30T08:13:03.043Z,53.79
2019-03-30T08:15:31.431Z,53.31
2019-03-30T08:18:00.092Z,53.34
2019-03-30T08:20:28.479Z,53.40
2019-03-30T08:22:56.864Z,52.49
2019-03-30T08:25:25.556Z,51.53
2019-03-30T08:27:54.022Z,52.04
2019-03-30T08:30:22.471Z,51.25
2019-03-30T08:32:51.011Z,48.68
2019-03-30T08:35:19.430Z,48.79
2019-03-30T08:37:48.167Z,48.35
2019-03-30T08:40:16.552Z,50.01
2019-03-30T08:42:44.960Z,48.26
2019-03-30T08:45:13.483Z,48.76
2019-03-30T08:47:41.877Z,49.29
2019-03-30T08:50:10.868Z,48.96
2019-03-30T08:52:39.556Z,48.31
2019-03-30T08:55:09.078Z,48.65
2019-03-30T08:57:37.477Z,47.00
2019-03-30T09:00:06.598Z,46.25
2019-03-30T09:02:35.001Z,46.05
2019-03-30T09:05:04.050Z,47.68
2019-03-30T09:07:32.441Z,46.75
2019-03-30T09:10:00.856Z,45.71
2019-03-30T09:12:29.346Z,46.09
2019-03-30T09:14:57.747Z,44.02
2019-03-30T09:17:26.413Z,44.94
2019-03-30T09:19:55.208Z,44.63
2019-03-30T09:22:23.886Z,41.96
2019-03-30T09:24:52.497Z,43.18
2019-03-30T09:27:20.900Z,41.08
2019-03-30T09:29:49.285Z,41.50
2019-03-30T09:32:17.920Z,41.03
2019-03-30T09:34:46.378Z,41.47
2019-03-30T09:37:14.763Z,40.29
2019-03-30T09:39:43.396Z,41.23
2019-03-30T09:42:11.775Z,41.05
2019-03-30T09:44:40.317Z,39.29
2019-03-30T09:47:08.927Z,38.18
2019-03-30T09:49:37.694Z,38.28
2019-03-30T09:52:06.171Z,38.38
2019-03-30T09:54:34.678Z,36.92
2019-03-30T09:57:03.059Z,37.88
2019-03-30T09:59:31.494Z,37.19
2019-03-30T10:01:59.930Z,36.50
2019-03-30T10:04:28.319Z,35.57
2019-03-30T10:06:56.881Z,35.59
2019-03-30T10:09:27.027Z,35.18
2019-03-30T10:11:56.599Z,35.14
2019-03-30T10:14:25.143Z,34.83
2019-03-30T10:16:58.274Z,34.70
2019-03-30T10:19:30.133Z,35.39
2019-03-30T10:22:00.008Z,34.47
2019-03-30T10:24:37.831Z,34.44
2019-03-30T10:26:58.527Z,33.96
2019-03-30T10:29:26.908Z,33.49
2019-03-30T10:31:55.297Z,33.40
2019-03-30T10:34:23.721Z,31.96
2019-03-30T10:36:52.179Z,31.73
2019-03-30T10:39:20.566Z,31.54
2019-03-30T10:41:48.998Z,32.39
2019-03-30T10:44:17.856Z,31.59
2019-03-30T10:46:46.256Z,32.24
2019-03-30T10:49:14.665Z,31.05
2019-03-30T10:51:43.126Z,31.69
2019-03-30T10:54:11.600Z,31.34
2019-03-30T10:56:40.006Z,32.10
2019-03-30T10:59:08.403Z,32.63
2019-03-30T11:01:36.798Z,31.91
2019-03-30T11:04:05.551Z,32.72
2019-03-30T11:06:34.724Z,32.03
2019-03-30T11:09:03.995Z,32.28
2019-03-30T11:11:32.438Z,31.00
2019-03-30T11:14:00.809Z,32.15
2019-03-30T11:16:29.500Z,30.30
2019-03-30T11:18:57.983Z,30.43
2019-03-30T11:21:26.490Z,31.21
2019-03-30T11:23:54.884Z,30.53
2019-03-30T11:26:23.272Z,29.93
2019-03-30T11:28:51.668Z,29.76
2019-03-30T11:31:20.247Z,30.28
2019-03-30T11:33:48.727Z,31.57
2019-03-30T11:36:18.774Z,30.89
2019-03-30T11:38:47.423Z,31.34
2019-03-30T11:41:15.835Z,30.69
2019-03-30T11:43:44.639Z,29.45
2019-03-30T11:46:13.021Z,30.04
2019-03-30T11:48:41.400Z,30.13
2019-03-30T11:51:10.084Z,30.04
2019-03-30T11:53:38.692Z,29.81
2019-03-30T11:56:07.153Z,30.04
2019-03-30T11:58:35.836Z,31.46
2019-03-30T12:01:05.227Z,30.60
2019-03-30T12:03:33.690Z,30.88
2019-03-30T12:06:02.113Z,30.55
2019-03-30T12:08:30.608Z,30.41
2019-03-30T12:10:59.262Z,30.90
2019-03-30T12:13:27.657Z,31.72
2019-03-30T12:15:56.437Z,31.01
2019-03-30T12:18:25.110Z,30.70
2019-03-30T12:20:53.498Z,30.92
2019-03-30T12:23:22.003Z,31.52
2019-03-30T12:25:50.415Z,31.91
2019-03-30T12:28:18.799Z,32.71
2019-03-30T12:30:47.202Z,30.81
2019-03-30T12:33:15.618Z,30.82
2019-03-30T12:35:44.009Z,31.05
2019-03-30T12:38:12.597Z,31.59
2019-03-30T12:40:41.009Z,30.71
2019-03-30T12:43:12.807Z,32.45
2019-03-30T12:45:41.451Z,30.90
2019-03-30T12:48:10.212Z,31.00
2019-03-30T12:50:38.673Z,31.64
2019-03-30T12:53:07.218Z,30.88
2019-03-30T12:55:48.774Z,31.60
2019-03-30T12:58:05.947Z,31.06
2019-03-30T13:00:35.028Z,32.04
2019-03-30T13:03:04.551Z,32.23
2019-03-30T13:05:33.197Z,31.64
2019-03-30T13:08:01.689Z,31.99
2019-03-30T13:10:30.097Z,31.68
2019-03-30T13:12:58.688Z,31.10
2019-03-30T13:15:27.219Z,30.86
2019-03-30T13:17:55.619Z,31.92
2019-03-30T13:20:24.135Z,30.85
2019-03-30T13:22:52.517Z,30.51
2019-03-30T13:25:21.416Z,31.64
2019-03-30T13:27:51.939Z,30.24
2019-03-30T13:30:21.071Z,29.92
2019-03-30T13:32:53.233Z,30.53
2019-03-30T13:35:20.321Z,31.27
2019-03-30T13:37:48.903Z,31.15
2019-03-30T13:40:17.415Z,30.85
2019-03-30T13:42:45.995Z,32.90
2019-03-30T13:45:15.205Z,32.00
2019-03-30T13:47:43.827Z,31.40
2019-03-30T13:50:12.790Z,31.25
2019-03-30T13:52:41.436Z,31.60
2019-03-30T13:55:10.354Z,30.41
2019-03-30T13:57:38.839Z,31.09
2019-03-30T14:00:09.366Z,32.32
2019-03-30T14:02:37.943Z,31.96
2019-03-30T14:05:08.067Z,31.10
2019-03-30T14:07:37.156Z,31.25
2019-03-30T14:10:10.523Z,32.58
2019-03-30T14:12:39.426Z,32.46
2019-03-30T14:15:09.942Z,33.62
2019-03-30T14:17:39.034Z,32.06
2019-03-30T14:20:08.045Z,32.35
2019-03-30T14:22:37.470Z,32.17
2019-03-30T14:25:07.510Z,32.67
2019-03-30T14:27:35.960Z,32.57
2019-03-30T14:30:07.123Z,33.04
2019-03-30T14:32:35.508Z,32.56
2019-03-30T14:35:05.045Z,33.23
2019-03-30T14:37:33.435Z,33.19
2019-03-30T14:40:02.192Z,33.08
2019-03-30T14:42:30.590Z,33.25
2019-03-30T14:44:59.038Z,34.05
2019-03-30T14:47:27.493Z,32.93
2019-03-30T14:49:56.005Z,33.43
2019-03-30T14:52:24.408Z,33.02
2019-03-30T14:54:53.400Z,33.35
2019-03-30T14:57:21.939Z,34.46
2019-03-30T14:59:50.331Z,33.20
2019-03-30T15:02:18.732Z,33.34
2019-03-30T15:04:47.122Z,33.05
2019-03-30T15:07:15.756Z,33.65
2019-03-30T15:09:44.171Z,34.27
2019-03-30T15:12:12.551Z,33.98
2019-03-30T15:14:40.954Z,33.72
2019-03-30T15:17:09.350Z,33.70
2019-03-30T15:19:37.741Z,34.56
2019-03-30T15:22:06.124Z,33.40
2019-03-30T15:24:34.520Z,35.62
2019-03-30T15:27:02.967Z,33.79
2019-03-30T15:29:31.370Z,34.07
2019-03-30T15:31:59.826Z,33.98
2019-03-30T15:34:28.251Z,35.30
2019-03-30T15:36:56.647Z,33.97
2019-03-30T15:39:25.307Z,34.97
2019-03-30T15:41:53.809Z,33.71
2019-03-30T15:44:25.649Z,34.15
2019-03-30T15:46:54.107Z,33.87
2019-03-30T15:49:22.636Z,34.14
2019-03-30T15:51:51.028Z,34.51
2019-03-30T15:54:19.543Z,33.82
2019-03-30T15:56:48.257Z,33.33
2019-03-30T15:59:16.769Z,34.02
2019-03-30T16:01:45.154Z,34.73
2019-03-30T16:04:13.577Z,33.50
2019-03-30T16:06:42.283Z,33.45
2019-03-30T16:09:10.970Z,33.71
2019-03-30T16:11:39.362Z,32.91
2019-03-30T16:14:07.751Z,34.12
2019-03-30T16:16:36.153Z,33.57
2019-03-30T16:19:04.582Z,34.51
2019-03-30T16:21:32.992Z,34.00
2019-03-30T16:24:01.489Z,33.57
2019-03-30T16:26:41.435Z,34.35
2019-03-30T16:29:00.455Z,33.77
2019-03-30T16:31:28.840Z,33.97
2019-03-30T16:33:57.252Z,33.91
2019-03-30T16:36:25.642Z,34.09
2019-03-30T16:38:54.025Z,34.75
2019-03-30T16:41:22.457Z,34.15
2019-03-30T16:43:50.838Z,34.85
2019-03-30T16:46:19.226Z,34.39
2019-03-30T16:48:47.757Z,33.92
2019-03-30T16:51:16.298Z,34.07
2019-03-30T16:53:47.319Z,34.39
2019-03-30T16:56:14.855Z,34.67
2019-03-30T16:58:43.394Z,34.01
2019-03-30T17:01:11.776Z,34.99
2019-03-30T17:03:40.410Z,34.58
2019-03-30T17:06:08.785Z,34.49
2019-03-30T17:08:37.180Z,34.82
2019-03-30T17:11:05.877Z,34.86
2019-03-30T17:13:34.281Z,34.17
2019-03-30T17:16:02.670Z,34.23
2019-03-30T17:18:31.053Z,34.36
2019-03-30T17:20:59.527Z,34.64
2019-03-30T17:23:28.186Z,35.27
2019-03-30T17:25:56.571Z,35.14
2019-03-30T17:28:24.970Z,35.20
2019-03-30T17:30:53.437Z,35.10
2019-03-30T17:33:22.238Z,35.38
2019-03-30T17:35:50.618Z,35.62
2019-03-30T17:38:19.004Z,36.82
2019-03-30T17:40:47.443Z,35.75
2019-03-30T17:43:16.645Z,35.95
2019-03-30T17:45:45.433Z,36.43
2019-03-30T17:48:13.829Z,36.29
2019-03-30T17:50:42.232Z,36.46
2019-03-30T17:53:10.806Z,36.92
2019-03-30T17:55:39.277Z,36.95
2019-03-30T17:58:13.341Z,37.42
2019-03-30T18:00:38.079Z,37.85
2019-03-30T18:03:06.485Z,38.33
2019-03-30T18:05:35.125Z,38.79
2019-03-30T18:08:03.525Z,39.73
2019-03-30T18:10:31.921Z,39.64
2019-03-30T18:13:00.341Z,39.94
2019-03-30T18:15:28.811Z,40.49
2019-03-30T18:17:57.534Z,40.56
2019-03-30T18:20:25.916Z,40.42
2019-03-30T18:22:54.885Z,40.70
2019-03-30T18:25:23.511Z,40.56
2019-03-30T18:27:51.908Z,40.84
2019-03-30T18:30:23.557Z,40.66
2019-03-30T18:32:53.495Z,40.65
2019-03-30T18:35:22.093Z,41.34
2019-03-30T18:37:52.017Z,41.75
2019-03-30T18:40:32.195Z,42.44
2019-03-30T18:43:02.742Z,42.50
2019-03-30T18:45:31.382Z,43.48
2019-03-30T18:48:16.531Z,44.03
2019-03-30T18:50:45.568Z,44.35
2019-03-30T18:53:15.561Z,44.71
2019-03-30T18:55:44.534Z,44.94
2019-03-30T18:58:12.954Z,45.09
2019-03-30T19:00:41.344Z,44.01
2019-03-30T19:03:10.037Z,43.77
2019-03-30T19:05:38.828Z,44.16
2019-03-30T19:08:07.261Z,44.41
2019-03-30T19:10:35.714Z,43.38
2019-03-30T19:13:04.107Z,43.04
2019-03-30T19:15:32.536Z,42.64
2019-03-30T19:18:00.926Z,42.63
2019-03-30T19:20:29.526Z,42.87
2019-03-30T19:22:57.938Z,43.29
2019-03-30T19:25:29.577Z,44.33
2019-03-30T19:27:56.430Z,45.31
2019-03-30T19:30:25.178Z,46.01
2019-03-30T19:32:54.478Z,46.22
2019-03-30T19:35:23.365Z,46.52
2019-03-30T19:37:51.746Z,47.14
2019-03-30T19:40:20.316Z,47.38
2019-03-30T19:42:48.956Z,47.36
2019-03-30T19:45:17.410Z,47.60
2019-03-30T19:47:45.805Z,47.87
2019-03-30T19:50:14.451Z,48.26
2019-03-30T19:52:42.853Z,48.37
2019-03-30T19:55:11.235Z,48.61
2019-03-30T19:57:39.726Z,48.88
2019-03-30T20:00:12.891Z,49.25
2019-03-30T20:02:41.503Z,49.36
2019-03-30T20:05:10.378Z,49.58
2019-03-30T20:07:38.782Z,49.59
2019-03-30T20:10:08.465Z,48.31
2019-03-30T20:12:37.974Z,47.86
2019-03-30T20:15:08.206Z,47.90
2019-03-30T20:17:36.616Z,47.22
2019-03-30T20:20:06.906Z,47.54
2019-03-30T20:22:35.298Z,47.85
2019-03-30T20:25:04.976Z,47.48
2019-03-30T20:27:33.816Z,47.70
2019-03-30T20:30:02.942Z,48.02
2019-03-30T20:32:31.337Z,48.60
2019-03-30T20:34:59.769Z,48.33
2019-03-30T20:37:28.174Z,47.57
2019-03-30T20:39:56.553Z,47.99
2019-03-30T20:42:24.961Z,48.70
2019-03-30T20:44:53.353Z,49.12
2019-03-30T20:47:21.739Z,49.86
2019-03-30T20:49:50.134Z,50.39
2019-03-30T20:52:18.552Z,50.67
2019-03-30T20:54:46.984Z,50.15
2019-03-30T20:57:15.453Z,49.96
2019-03-30T20:59:43.991Z,50.03
2019-03-30T21:02:12.424Z,50.19
2019-03-30T21:04:40.991Z,49.93
2019-03-30T21:07:09.441Z,49.49
2019-03-30T21:09:37.941Z,49.83
2019-03-30T21:12:06.334Z,50.56
2019-03-30T21:14:34.731Z,51.46
2019-03-30T21:17:03.128Z,52.48
2019-03-30T21:19:31.573Z,53.79
2019-03-30T21:22:00.477Z,54.88
2019-03-30T21:24:28.995Z,55.47
2019-03-30T21:26:57.379Z,56.07
2019-03-30T21:29:25.759Z,56.16
2019-03-30T21:31:54.694Z,56.47
2019-03-30T21:34:23.100Z,56.38
2019-03-30T21:36:51.479Z,56.45
2019-03-30T21:39:19.863Z,56.07
2019-03-30T21:41:48.257Z,55.57
2019-03-30T21:44:22.202Z,55.29
2019-03-30T21:46:47.012Z,55.15
2019-03-30T21:49:15.694Z,55.65
2019-03-30T21:51:44.480Z,55.79
2019-03-30T21:54:12.880Z,55.22
2019-03-30T21:56:41.265Z,54.38
2019-03-30T21:59:09.676Z,54.54
2019-03-30T22:01:38.059Z,54.97
2019-03-30T22:04:06.685Z,55.28
2019-03-30T22:06:35.359Z,55.44
2019-03-30T22:09:06.099Z,54.83
2019-03-30T22:11:35.021Z,54.85
2019-03-30T22:14:03.437Z,55.18
2019-03-30T22:16:31.820Z,54.67
2019-03-30T22:19:00.206Z,54.01
2019-03-30T22:21:28.923Z,54.07
2019-03-30T22:23:57.317Z,53.78
2019-03-30T22:26:26.083Z,54.18
2019-03-30T22:28:54.468Z,54.67
2019-03-30T22:31:22.872Z,54.82
2019-03-30T22:33:51.547Z,54.91
2019-03-30T22:36:19.919Z,55.18
2019-03-30T22:38:48.332Z,55.53
2019-03-30T22:41:16.893Z,55.70
2019-03-30T22:43:45.275Z,55.34
2019-03-30T22:46:14.713Z,54.35
2019-03-30T22:48:43.101Z,54.81
2019-03-30T22:51:11.641Z,55.58
2019-03-30T22:53:40.089Z,57.32
2019-03-30T22:56:08.471Z,57.32
2019-03-30T22:58:36.873Z,57.58
2019-03-30T23:01:09.870Z,58.07
2019-03-30T23:03:38.262Z,58.33
2019-03-30T23:06:06.825Z,58.52
2019-03-30T23:08:35.501Z,58.54
2019-03-30T23:11:03.993Z,57.73
2019-03-30T23:13:32.377Z,57.73
2019-03-30T23:16:01.144Z,57.99
2019-03-30T23:18:29.598Z,57.99
2019-03-30T23:20:58.092Z,57.93
2019-03-30T23:23:26.492Z,58.19
2019-03-30T23:25:55.167Z,58.38
2019-03-30T23:28:26.445Z,58.77
2019-03-30T23:30:55.102Z,58.70
2019-03-30T23:33:23.896Z,57.80
2019-03-30T23:35:52.320Z,58.13
2019-03-30T23:38:20.708Z,58.13
2019-03-30T23:40:49.253Z,57.82
2019-03-30T23:43:17.718Z,57.82
2019-03-30T23:45:46.106Z,57.07
2019-03-30T23:48:14.784Z,56.47
2019-03-30T23:50:43.422Z,55.96
2019-03-30T23:53:13.140Z,55.72
2019-03-30T23:55:41.445Z,55.80
2019-03-30T23:58:09.848Z,57.25
